Time;durP1;ratioP1;P1;durP2;ratioP2;P2;SDS_P1;SDS_P2;PMS_P1;PMS_P2;Temp;Humidity;BMP_temperature;BMP_pressure;BME280_temperature;BME280_humidity;BME280_pressure;Samples;Min_cycle;Max_cycle;Signal;HPM_P1;HPM_P2
2023/03/17 00:01:09;;;;;;;11.00;4.78;;;;;;;1.75;59.27;100673.66;4364901;32;20360;-84
2023/03/17 00:03:36;;;;;;;15.77;4.93;;;;;;;1.86;59.29;100666.16;4363292;32;20142;-84
2023/03/17 00:06:03;;;;;;;16.00;5.20;;;;;;;1.85;59.29;100682.38;4379847;32;20095;-83
2023/03/17 00:08:31;;;;;;;20.95;6.68;;;;;;;1.79;59.28;100675.44;4380056;32;20110;-87
2023/03/17 00:10:56;;;;;;;24.90;8.68;;;;;;;1.71;59.28;100668.47;4380034;32;20132;-85
2023/03/17 00:13:22;;;;;;;25.48;8.45;;;;;;;1.67;59.28;100675.25;4370079;32;20161;-84
2023/03/17 00:15:51;;;;;;;18.27;7.15;;;;;;;1.77;59.29;100666.84;4380089;32;20089;-86
2023/03/17 00:18:17;;;;;;;17.37;6.35;;;;;;;1.73;59.28;100670.22;4379727;32;20132;-86
2023/03/17 00:20:42;;;;;;;12.32;4.70;;;;;;;1.61;59.27;100675.09;4379594;32;20161;-87
2023/03/17 00:23:13;;;;;;;9.05;3.10;;;;;;;1.76;59.27;100664.28;4366327;32;20116;-87
2023/03/17 00:25:41;;;;;;;11.23;4.35;;;;;;;1.59;59.27;100669.06;4380728;32;20094;-87
2023/03/17 00:28:12;;;;;;;8.88;3.58;;;;;;;1.44;59.26;100664.53;4393300;32;20158;-86
2023/03/17 00:30:38;;;;;;;9.30;3.45;;;;;;;1.56;59.27;100660.47;4380796;32;20110;-87
2023/03/17 00:33:03;;;;;;;7.10;2.70;;;;;;;1.50;59.26;100666.34;4392118;32;20172;-87
2023/03/17 00:35:28;;;;;;;8.50;3.53;;;;;;;1.38;59.25;100664.41;4380397;32;20094;-86
2023/03/17 00:37:55;;;;;;;9.02;3.53;;;;;;;1.39;59.25;100660.13;4379695;32;20127;-87
2023/03/17 00:40:28;;;;;;;5.80;2.60;;;;;;;1.31;59.25;100659.12;4377547;32;20115;-87
2023/03/17 00:42:53;;;;;;;10.13;3.83;;;;;;;1.24;59.24;100658.16;4366321;32;20158;-85
2023/03/17 00:45:20;;;;;;;8.07;3.28;;;;;;;1.34;59.26;100654.91;4365189;32;20094;-86
2023/03/17 00:47:45;;;;;;;8.73;3.25;;;;;;;1.35;59.26;100651.50;4363951;32;20110;-85
2023/03/17 00:50:13;;;;;;;11.75;3.42;;;;;;;1.26;59.25;100651.34;4386254;32;20478;-85
2023/03/17 00:52:39;;;;;;;29.42;8.05;;;;;;;1.37;59.26;100641.28;4380519;32;20116;-86
2023/03/17 00:55:06;;;;;;;67.15;18.52;;;;;;;1.41;59.26;100643.94;4380247;32;20117;-86
2023/03/17 00:57:32;;;;;;;48.65;15.60;;;;;;;1.41;59.26;100640.50;4380407;32;20109;-87
2023/03/17 00:59:57;;;;;;;31.65;9.90;;;;;;;1.23;59.25;100641.03;4382057;32;20549;-88
2023/03/17 01:02:23;;;;;;;13.57;4.75;;;;;;;1.22;59.24;100645.28;4380676;32;20135;-88
2023/03/17 01:04:49;;;;;;;8.32;3.50;;;;;;;1.15;59.24;100645.12;4391834;32;20144;-88
2023/03/17 01:07:15;;;;;;;7.87;2.83;;;;;;;1.07;59.24;100651.81;4372073;32;20469;-88
2023/03/17 01:09:40;;;;;;;7.50;2.97;;;;;;;1.29;59.25;100648.84;4397976;32;20150;-89
2023/03/17 01:12:08;;;;;;;7.05;3.15;;;;;;;1.12;59.24;100642.50;4384929;32;20393;-88
2023/03/17 01:14:34;;;;;;;7.90;3.08;;;;;;;1.14;59.24;100644.25;4385081;32;20366;-88
2023/03/17 01:16:59;;;;;;;9.18;2.62;;;;;;;1.11;59.25;100645.91;4384792;32;20175;-88
2023/03/17 01:19:25;;;;;;;5.75;2.60;;;;;;;0.98;59.24;100656.75;4385008;32;20137;-88
2023/03/17 01:21:51;;;;;;;5.43;2.60;;;;;;;1.01;59.23;100652.53;4385092;32;20189;-89
2023/03/17 01:24:16;;;;;;;7.80;3.10;;;;;;;0.93;59.23;100656.63;4370001;32;20106;-87
2023/03/17 01:26:42;;;;;;;4.50;2.80;;;;;;;1.16;59.24;100652.84;4396365;32;20131;-87
2023/03/17 01:29:07;;;;;;;7.40;3.30;;;;;;;1.20;59.25;100646.09;4372561;32;20143;-87
2023/03/17 01:31:33;;;;;;;10.82;3.12;;;;;;;0.98;59.24;100652.47;4396784;32;20439;-87
2023/03/17 01:33:59;;;;;;;5.78;2.92;;;;;;;0.84;59.23;100651.31;4385153;32;20156;-87
2023/03/17 01:36:24;;;;;;;7.60;2.58;;;;;;;0.85;59.23;100646.22;4384496;32;20164;-86
2023/03/17 01:38:49;;;;;;;8.20;3.30;;;;;;;0.89;59.23;100647.16;4381792;32;20178;-87
2023/03/17 01:41:22;;;;;;;6.32;2.65;;;;;;;0.75;59.22;100651.13;4368155;32;20154;-87
2023/03/17 01:43:47;;;;;;;5.75;2.75;;;;;;;0.71;59.21;100646.72;4379952;32;20131;-87
2023/03/17 01:46:19;;;;;;;8.93;3.20;;;;;;;0.49;59.20;100645.41;4384236;32;21062;-86
2023/03/17 01:48:45;;;;;;;10.65;3.17;;;;;;;0.68;59.22;100652.66;4384706;32;20498;-86
2023/03/17 01:51:16;;;;;;;7.97;3.22;;;;;;;0.80;59.22;100652.09;4410892;32;20091;-87
2023/03/17 01:53:42;;;;;;;8.70;2.78;;;;;;;0.62;59.21;100655.09;4384862;32;20098;-87
2023/03/17 01:56:07;;;;;;;6.35;2.70;;;;;;;0.59;59.21;100655.03;4372183;32;20145;-87
2023/03/17 01:58:33;;;;;;;6.30;3.08;;;;;;;0.67;59.22;100645.81;4371705;32;20495;-87
2023/03/17 02:00:58;;;;;;;9.50;3.50;;;;;;;0.49;59.20;100632.63;4384718;32;20116;-87
2023/03/17 02:03:24;;;;;;;8.77;3.22;;;;;;;0.55;59.21;100633.59;4384196;32;20093;-87
2023/03/17 02:05:50;;;;;;;6.35;3.03;;;;;;;0.56;59.21;100637.03;4384414;32;20125;-87
2023/03/17 02:08:16;;;;;;;8.88;2.87;;;;;;;0.63;59.21;100636.34;4384339;32;20205;-87
2023/03/17 02:10:42;;;;;;;5.03;3.03;;;;;;;0.61;59.21;100648.25;4383882;32;20232;-87
2023/03/17 02:13:09;;;;;;;7.85;3.40;;;;;;;0.60;59.21;100656.75;4381376;32;20481;-88
2023/03/17 02:15:53;;;;;;;8.38;3.35;;;;;;;0.61;59.21;100651.66;4381816;32;20191;-87
2023/03/17 02:18:20;;;;;;;6.95;2.92;;;;;;;0.69;59.21;100669.75;4381539;32;20169;-87
2023/03/17 02:20:46;;;;;;;6.50;2.50;;;;;;;0.61;59.21;100679.00;4381664;32;20078;-87
2023/03/17 02:23:13;;;;;;;9.50;2.95;;;;;;;0.61;59.21;100679.84;4393435;32;20108;-87
2023/03/17 02:25:38;;;;;;;6.50;2.70;;;;;;;0.61;59.21;100679.00;4381579;32;20145;-88
2023/03/17 02:28:09;;;;;;;8.45;2.75;;;;;;;0.57;59.20;100680.63;4381524;32;20471;-88
2023/03/17 02:30:35;;;;;;;10.68;2.75;;;;;;;0.63;59.21;100682.44;4381282;32;20129;-88
2023/03/17 02:33:01;;;;;;;8.35;2.83;;;;;;;0.45;59.20;100688.00;4368758;32;20427;-88
2023/03/17 02:35:27;;;;;;;5.55;2.83;;;;;;;0.44;59.20;100699.06;4368817;32;20102;-88
2023/03/17 02:37:52;;;;;;;6.62;3.12;;;;;;;0.45;59.21;100690.56;4393487;32;20126;-87
2023/03/17 02:40:17;;;;;;;8.57;3.03;;;;;;;0.55;59.21;100689.97;4393935;32;20506;-87
2023/03/17 02:42:43;;;;;;;11.93;3.47;;;;;;;0.71;59.21;100685.16;4393450;32;20259;-85
2023/03/17 02:45:10;;;;;;;7.72;2.72;;;;;;;0.58;59.21;100690.03;4394027;32;20113;-87
2023/03/17 02:47:35;;;;;;;8.63;2.78;;;;;;;0.36;59.19;100695.47;4381601;32;20124;-87
2023/03/17 02:50:01;;;;;;;6.97;2.75;;;;;;;0.53;59.21;100683.06;4393535;32;20536;-87
2023/03/17 02:52:26;;;;;;;9.98;2.92;;;;;;;0.25;59.19;100677.31;4393564;32;20116;-87
2023/03/17 02:54:52;;;;;;;8.63;2.83;;;;;;;-0.02;59.17;100672.34;4407643;32;20155;-88
2023/03/17 02:57:17;;;;;;;5.65;2.60;;;;;;;-0.03;59.17;100688.53;4393605;32;20106;-88
2023/03/17 02:59:42;;;;;;;12.25;3.30;;;;;;;-0.06;59.17;100685.88;4393457;32;20120;-86
2023/03/17 03:02:08;;;;;;;8.35;3.03;;;;;;;-0.17;59.16;100687.31;4393605;32;20141;-88
2023/03/17 03:04:34;;;;;;;8.35;2.42;;;;;;;-0.05;59.18;100681.63;4381034;32;20576;-87
2023/03/17 03:07:00;;;;;;;7.85;3.17;;;;;;;-0.05;59.17;100687.63;4381547;32;20102;-86
2023/03/17 03:09:26;;;;;;;5.07;3.00;;;;;;;-0.10;59.17;100688.34;4381696;32;20465;-86
2023/03/17 03:11:51;;;;;;;4.72;2.35;;;;;;;-0.03;59.17;100688.53;4381227;32;20102;-86
2023/03/17 03:14:16;;;;;;;8.93;2.72;;;;;;;0.04;59.17;100692.13;4394060;32;20106;-86
2023/03/17 03:16:42;;;;;;;6.50;2.80;;;;;;;0.09;59.18;100687.97;4380918;32;20109;-86
2023/03/17 03:19:08;;;;;;;5.90;2.65;;;;;;;-0.10;59.17;100684.09;4393624;32;20194;-87
2023/03/17 03:21:33;;;;;;;6.20;2.80;;;;;;;0.05;59.18;100680.19;4381241;32;20185;-86
2023/03/17 03:23:58;;;;;;;6.68;3.00;;;;;;;0.02;59.18;100677.56;4377583;32;20447;-87
2023/03/17 03:26:24;;;;;;;9.02;3.67;;;;;;;0.01;59.18;100679.25;4391190;32;20140;-87
2023/03/17 03:28:50;;;;;;;10.38;3.05;;;;;;;-0.03;59.17;100682.53;4381568;32;20102;-87
2023/03/17 03:31:15;;;;;;;9.70;2.95;;;;;;;-0.06;59.17;100680.78;4393476;32;20152;-87
2023/03/17 03:33:41;;;;;;;7.60;2.58;;;;;;;0.02;59.18;100677.56;4393981;32;20173;-86
2023/03/17 03:36:07;;;;;;;6.60;2.45;;;;;;;-0.13;59.17;100681.44;4381508;32;20111;-86
2023/03/17 03:38:33;;;;;;;7.25;2.47;;;;;;;0.01;59.18;100681.81;4382272;32;20479;-86
2023/03/17 03:40:58;;;;;;;7.30;2.87;;;;;;;0.02;59.18;100680.13;4382564;32;20142;-86
2023/03/17 03:43:24;;;;;;;10.50;2.72;;;;;;;0.15;59.18;100677.03;4394857;32;20142;-85
2023/03/17 03:45:50;;;;;;;5.30;2.25;;;;;;;0.11;59.17;100676.09;4382787;32;20132;-86
2023/03/17 03:48:15;;;;;;;10.75;2.72;;;;;;;0.02;59.18;100680.13;4382498;32;20098;-86
2023/03/17 03:50:41;;;;;;;6.30;2.60;;;;;;;-0.05;59.17;100681.63;4382499;32;20128;-86
2023/03/17 03:53:06;;;;;;;6.47;2.58;;;;;;;-0.19;59.16;100677.87;4382030;32;20352;-86
2023/03/17 03:55:31;;;;;;;7.10;2.60;;;;;;;-0.15;59.16;100677.13;4382141;32;23528;-86
2023/03/17 03:57:57;;;;;;;7.43;2.87;;;;;;;-0.26;59.16;100670.84;4382527;32;20082;-85
2023/03/17 04:00:22;;;;;;;5.57;2.55;;;;;;;-0.15;59.16;100667.75;4382269;32;20378;-86
2023/03/17 04:02:48;;;;;;;8.70;3.22;;;;;;;-0.32;59.15;100674.97;4382599;32;20785;-84
2023/03/17 04:05:14;;;;;;;13.90;3.00;;;;;;;-0.29;59.15;100671.63;4382654;32;20106;-86
2023/03/17 04:07:40;;;;;;;5.95;2.62;;;;;;;-0.21;59.16;100672.72;4394979;32;20116;-86
2023/03/17 04:10:07;;;;;;;6.40;2.90;;;;;;;-0.35;59.15;100674.03;4382595;32;20086;-86
2023/03/17 04:12:33;;;;;;;6.00;2.60;;;;;;;-0.37;59.15;100658.66;4382775;32;20124;-87
2023/03/17 04:14:58;;;;;;;6.80;2.72;;;;;;;-0.24;59.16;100661.50;4382524;32;20190;-85
2023/03/17 04:17:23;;;;;;;10.50;2.92;;;;;;;-0.27;59.16;100664.00;4381813;32;24001;-85
2023/03/17 04:19:50;;;;;;;8.10;3.75;;;;;;;-0.35;59.15;100662.09;4382135;32;20118;-85
2023/03/17 04:22:15;;;;;;;8.55;4.18;;;;;;;-0.37;59.15;100661.19;4382176;32;20127;-85
2023/03/17 04:24:41;;;;;;;7.75;3.97;;;;;;;-0.27;59.16;100671.66;4382150;32;20098;-85
2023/03/17 04:27:06;;;;;;;11.25;4.10;;;;;;;-0.18;59.16;100672.78;4394918;32;20383;-85
2023/03/17 04:29:32;;;;;;;10.35;4.18;;;;;;;-0.35;59.15;100672.34;4394945;32;20585;-85
2023/03/17 04:31:57;;;;;;;8.90;3.30;;;;;;;-0.44;59.14;100667.00;4394772;32;20125;-84
2023/03/17 04:34:23;;;;;;;7.25;3.58;;;;;;;-0.30;59.15;100662.22;4394469;32;20094;-85
2023/03/17 04:36:48;;;;;;;8.85;3.92;;;;;;;-0.35;59.15;100669.78;4381745;32;20116;-84
2023/03/17 04:39:14;;;;;;;8.98;3.12;;;;;;;-0.22;59.16;100665.88;4382376;32;20141;-84
2023/03/17 04:41:39;;;;;;;10.25;4.07;;;;;;;-0.18;59.16;100667.69;4381968;32;20361;-85
2023/03/17 04:44:05;;;;;;;14.93;4.20;;;;;;;-0.39;59.15;100672.22;4382119;32;20098;-85
2023/03/17 04:46:31;;;;;;;11.52;4.35;;;;;;;-0.53;59.14;100678.66;4382201;32;20091;-85
2023/03/17 04:48:57;;;;;;;10.32;4.35;;;;;;;-0.42;59.15;100673.00;4381961;32;20109;-85
2023/03/17 04:51:22;;;;;;;7.72;3.53;;;;;;;-0.36;59.15;100672.31;4394138;32;23092;-85
2023/03/17 04:53:48;;;;;;;11.88;3.92;;;;;;;-0.42;59.15;100679.81;4369607;32;20456;-85
2023/03/17 04:56:14;;;;;;;8.93;4.87;;;;;;;-0.54;59.14;100685.44;4394536;32;20082;-85
2023/03/17 04:58:39;;;;;;;10.15;5.00;;;;;;;-0.38;59.15;100682.50;4394542;32;20332;-85
2023/03/17 05:01:06;;;;;;;9.75;4.00;;;;;;;-0.35;59.16;100687.69;4393942;32;20146;-86
2023/03/17 05:03:32;;;;;;;7.25;3.92;;;;;;;-0.56;59.14;100688.78;4381999;32;20094;-86
2023/03/17 05:05:57;;;;;;;11.27;3.65;;;;;;;-0.53;59.14;100686.31;4382043;32;20102;-86
2023/03/17 05:08:23;;;;;;;11.93;4.37;;;;;;;-0.49;59.15;100677.91;4381647;32;20086;-85
2023/03/17 05:10:49;;;;;;;9.27;4.65;;;;;;;-0.39;59.15;100685.88;4381332;32;20451;-85
2023/03/17 05:13:15;;;;;;;7.97;4.00;;;;;;;-0.34;59.15;100694.53;4369390;32;20124;-84
2023/03/17 05:15:46;;;;;;;8.95;4.12;;;;;;;-0.27;59.15;100700.66;4394396;32;20094;-86
2023/03/17 05:18:12;;;;;;;8.77;3.62;;;;;;;-0.23;59.16;100688.84;4382010;32;20077;-86
2023/03/17 05:20:37;;;;;;;6.05;3.42;;;;;;;-0.11;59.17;100691.72;4381328;32;20201;-86
2023/03/17 05:23:03;;;;;;;9.90;3.67;;;;;;;-0.25;59.16;100698.16;4394023;32;20106;-86
2023/03/17 05:25:28;;;;;;;10.88;3.25;;;;;;;-0.22;59.16;100701.69;4381543;32;20458;-86
2023/03/17 05:27:53;;;;;;;10.32;3.50;;;;;;;0.01;59.18;100686.94;4406896;32;20104;-84
2023/03/17 05:30:19;;;;;;;9.07;3.10;;;;;;;-0.11;59.17;100691.72;4393407;32;20388;-86
2023/03/17 05:32:45;;;;;;;10.77;3.78;;;;;;;-0.04;59.17;100693.59;4393821;32;20114;-86
2023/03/17 05:35:11;;;;;;;7.18;3.22;;;;;;;-0.07;59.16;100690.97;4381278;32;20106;-86
2023/03/17 05:37:36;;;;;;;9.98;3.17;;;;;;;0.09;59.17;100699.91;4368682;32;20099;-86
2023/03/17 05:40:02;;;;;;;6.53;3.08;;;;;;;0.24;59.19;100706.28;4381153;32;20197;-86
2023/03/17 05:42:27;;;;;;;7.97;3.67;;;;;;;0.41;59.20;100698.13;4381729;32;20156;-86
2023/03/17 05:44:53;;;;;;;7.60;2.53;;;;;;;0.57;59.21;100698.53;4380842;32;20130;-86
2023/03/17 05:47:18;;;;;;;10.30;3.70;;;;;;;0.66;59.22;100679.94;4394583;32;20426;-86
2023/03/17 05:49:44;;;;;;;9.55;3.50;;;;;;;0.81;59.21;100680.31;4395369;32;20455;-86
2023/03/17 05:52:10;;;;;;;14.50;4.50;;;;;;;0.92;59.23;100677.97;4383162;32;20220;-86
2023/03/17 05:54:36;;;;;;;7.93;3.60;;;;;;;1.07;59.23;100672.31;4383485;32;20086;-86
2023/03/17 05:57:02;;;;;;;18.45;6.93;;;;;;;1.41;59.26;100672.16;4395709;32;20142;-87
2023/03/17 05:59:28;;;;;;;16.65;7.45;;;;;;;1.68;59.27;100682.09;4395890;32;20105;-86
2023/03/17 06:01:54;;;;;;;12.55;5.97;;;;;;;1.82;59.27;100674.63;4382952;32;20122;-86
2023/03/17 06:04:19;;;;;;;15.65;7.03;;;;;;;2.08;59.29;100678.53;4395389;32;22134;-85
2023/03/17 06:06:45;;;;;;;17.45;6.95;;;;;;;2.15;59.30;100672.69;4395482;32;20141;-86
2023/03/17 06:09:10;;;;;;;11.85;6.75;;;;;;;2.38;59.32;100673.06;4383072;32;20144;-87
2023/03/17 06:11:37;;;;;;;19.17;7.68;;;;;;;2.49;59.32;100672.34;4382708;32;20110;-87
2023/03/17 06:14:02;;;;;;;16.02;7.32;;;;;;;2.59;59.33;100667.34;4382971;32;20090;-85
2023/03/17 06:16:29;;;;;;;18.85;7.78;;;;;;;2.76;59.34;100677.87;4382495;32;20149;-86
2023/03/17 06:18:55;;;;;;;19.80;7.15;;;;;;;3.01;59.34;100671.37;4370378;32;20101;-84
2023/03/17 06:21:21;;;;;;;15.93;7.15;;;;;;;3.14;59.35;100680.13;4382833;32;20090;-85
2023/03/17 06:23:46;;;;;;;18.50;7.30;;;;;;;3.33;59.37;100675.25;4382876;32;20491;-85
2023/03/17 06:26:11;;;;;;;19.12;7.30;;;;;;;3.57;59.38;100676.38;4382783;32;20490;-85
2023/03/17 06:28:37;;;;;;;18.85;7.87;;;;;;;3.88;59.39;100673.25;4409309;32;20153;-87
2023/03/17 06:31:02;;;;;;;21.45;8.80;;;;;;;3.92;59.40;100679.28;4382741;32;20122;-86
2023/03/17 06:33:28;;;;;;;20.83;9.35;;;;;;;4.17;59.42;100677.81;4382692;32;20178;-86
2023/03/17 06:35:54;;;;;;;17.10;8.48;;;;;;;4.44;59.43;100679.75;4382789;32;20090;-85
2023/03/17 06:38:20;;;;;;;22.27;7.90;;;;;;;4.79;59.45;100677.44;4382317;32;20141;-85
2023/03/17 06:40:46;;;;;;;20.02;9.05;;;;;;;4.89;59.46;100685.22;4383081;32;20127;-86
2023/03/17 06:43:12;;;;;;;18.60;8.77;;;;;;;5.05;59.47;100686.19;4382840;32;20130;-86
2023/03/17 06:45:37;;;;;;;25.58;10.02;;;;;;;5.27;59.48;100688.88;4395460;32;20089;-86
2023/03/17 06:48:03;;;;;;;18.87;7.53;;;;;;;5.41;59.49;100685.47;4382757;32;20098;-85
2023/03/17 06:50:28;;;;;;;15.80;7.47;;;;;;;5.63;59.50;100677.81;4395046;32;20134;-86
2023/03/17 06:52:54;;;;;;;20.62;6.18;;;;;;;5.80;59.51;100682.16;4382991;32;20190;-85
2023/03/17 06:55:20;;;;;;;12.48;5.20;;;;;;;6.00;59.52;100682.25;4395435;32;20164;-86
2023/03/17 06:57:45;;;;;;;9.15;4.85;;;;;;;6.13;59.53;100680.50;4395481;32;20389;-86
2023/03/17 07:00:12;;;;;;;13.88;4.60;;;;;;;6.52;59.55;100677.06;4395436;32;20098;-86
2023/03/17 07:02:38;;;;;;;9.45;4.25;;;;;;;6.69;59.56;100677.94;4395572;32;20584;-86
2023/03/17 07:05:05;;;;;;;11.05;3.95;;;;;;;6.72;59.57;100683.09;4395515;32;20090;-86
2023/03/17 07:07:30;;;;;;;9.68;4.05;;;;;;;6.95;59.58;100684.78;4395657;32;20106;-86
2023/03/17 07:09:56;;;;;;;13.48;4.57;;;;;;;7.14;59.58;100676.09;4395283;32;20168;-86
2023/03/17 07:12:21;;;;;;;14.15;4.60;;;;;;;7.20;59.58;100680.41;4395304;32;20138;-86
2023/03/17 07:14:47;;;;;;;10.85;4.15;;;;;;;7.42;59.60;100684.63;4395320;32;20398;-86
2023/03/17 07:17:13;;;;;;;8.48;4.50;;;;;;;7.43;59.60;100688.06;4382188;32;20400;-86
2023/03/17 07:19:39;;;;;;;10.65;4.03;;;;;;;7.41;59.60;100684.63;4382953;32;20117;-86
2023/03/17 07:22:05;;;;;;;11.40;4.45;;;;;;;7.59;59.61;100692.34;4382742;32;20089;-87
2023/03/17 07:24:30;;;;;;;12.63;4.87;;;;;;;7.61;59.62;100686.28;4382790;32;20151;-86
2023/03/17 07:26:56;;;;;;;10.23;3.45;;;;;;;7.78;59.62;100693.94;4382739;32;20214;-86
2023/03/17 07:29:21;;;;;;;8.43;4.20;;;;;;;7.85;59.63;100690.47;4382633;32;20137;-86
2023/03/17 07:31:47;;;;;;;11.27;4.43;;;;;;;7.96;59.63;100687.78;4382743;32;20086;-86
2023/03/17 07:34:12;;;;;;;12.55;4.40;;;;;;;8.08;59.64;100679.94;4382600;32;20411;-86
2023/03/17 07:36:38;;;;;;;9.63;4.15;;;;;;;8.12;59.64;100683.38;4382625;32;20402;-86
2023/03/17 07:39:04;;;;;;;8.77;4.37;;;;;;;8.37;59.66;100692.72;4382522;32;20427;-86
2023/03/17 07:41:29;;;;;;;14.18;4.50;;;;;;;8.47;59.66;100683.12;4382574;32;20129;-87
2023/03/17 07:43:56;;;;;;;7.25;3.65;;;;;;;8.43;59.65;100690.06;4382798;32;20162;-86
2023/03/17 07:46:21;;;;;;;8.57;4.28;;;;;;;8.54;59.66;100688.25;4383284;32;20118;-86
2023/03/17 07:48:47;;;;;;;8.18;4.18;;;;;;;8.56;59.66;100696.03;4394985;32;20166;-86
2023/03/17 07:51:14;;;;;;;12.32;4.05;;;;;;;8.82;59.68;100695.78;4382574;32;20475;-86
2023/03/17 07:53:39;;;;;;;13.45;3.83;;;;;;;8.96;59.69;100700.81;4395538;32;20184;-86
2023/03/17 07:56:05;;;;;;;13.02;3.62;;;;;;;8.53;59.67;100709.91;4395201;32;20141;-86
2023/03/17 07:58:31;;;;;;;9.77;4.15;;;;;;;8.85;59.68;100699.22;4395015;32;20451;-86
2023/03/17 08:00:57;;;;;;;11.18;3.85;;;;;;;8.90;59.69;100702.63;4395113;32;20395;-87
2023/03/17 08:03:22;;;;;;;16.80;5.18;;;;;;;9.28;59.71;100688.37;4382583;32;20149;-87
2023/03/17 08:05:54;;;;;;;10.00;4.20;;;;;;;9.34;59.72;100693.47;4394792;32;20102;-87
2023/03/17 08:08:20;;;;;;;7.57;3.92;;;;;;;9.50;59.72;100686.38;4394904;32;20093;-87
2023/03/17 08:10:46;;;;;;;11.38;4.00;;;;;;;9.52;59.72;100687.22;4394155;32;20094;-87
2023/03/17 08:13:11;;;;;;;8.93;3.40;;;;;;;9.63;59.72;100679.25;4382367;32;20082;-86
2023/03/17 08:15:37;;;;;;;6.65;3.15;;;;;;;9.56;59.73;100691.47;4408713;32;20640;-87
2023/03/17 08:18:02;;;;;;;10.43;3.92;;;;;;;9.61;59.73;100686.22;4381840;32;20196;-86
2023/03/17 08:20:28;;;;;;;6.10;3.20;;;;;;;9.79;59.74;100680.78;4382422;32;20094;-87
2023/03/17 08:22:54;;;;;;;9.50;3.00;;;;;;;10.03;59.75;100671.75;4382599;32;20081;-87
2023/03/17 08:25:20;;;;;;;12.13;3.05;;;;;;;10.23;59.76;100674.94;4382695;32;20125;-86
2023/03/17 08:27:46;;;;;;;5.40;2.67;;;;;;;10.28;59.76;100677.47;4408855;32;20121;-87
2023/03/17 08:30:11;;;;;;;8.68;3.58;;;;;;;10.34;59.77;100670.41;4408786;32;20391;-87
2023/03/17 08:32:37;;;;;;;6.45;3.25;;;;;;;10.56;59.78;100673.53;4382968;32;20086;-87
2023/03/17 08:35:05;;;;;;;13.73;3.20;;;;;;;10.48;59.78;100672.81;4394569;32;20124;-87
2023/03/17 08:37:31;;;;;;;7.78;3.62;;;;;;;10.70;59.79;100671.56;4382394;32;20214;-87
2023/03/17 08:39:56;;;;;;;8.13;4.03;;;;;;;10.81;59.79;100670.47;4394613;32;20078;-87
2023/03/17 08:42:22;;;;;;;8.80;4.68;;;;;;;10.79;59.79;100665.31;4394743;32;20148;-87
2023/03/17 08:44:47;;;;;;;38.70;22.73;;;;;;;10.72;59.78;100666.31;4382298;32;20127;-86
2023/03/17 08:47:13;;;;;;;171.62;112.05;;;;;;;10.72;59.79;100671.53;4394541;32;20116;-87
2023/03/17 08:49:38;;;;;;;72.47;53.50;;;;;;;10.60;59.78;100672.59;4381819;32;20188;-87
2023/03/17 08:52:04;;;;;;;23.98;18.27;;;;;;;10.72;59.79;100668.91;4381917;32;20085;-88
2023/03/17 08:54:29;;;;;;;11.48;4.43;;;;;;;10.97;59.80;100657.16;4382059;32;20101;-87
2023/03/17 08:56:54;;;;;;;7.25;3.83;;;;;;;11.19;59.81;100665.41;4382005;32;20180;-87
2023/03/17 08:59:20;;;;;;;14.82;3.08;;;;;;;11.26;59.82;100658.31;4369208;32;20102;-87
2023/03/17 09:01:45;;;;;;;21.55;3.83;;;;;;;11.40;59.83;100668.47;4394250;32;20134;-87
2023/03/17 09:04:11;;;;;;;9.75;2.22;;;;;;;11.48;59.83;100661.34;4394479;32;20142;-87
2023/03/17 09:06:36;;;;;;;5.43;1.90;;;;;;;11.72;59.85;100666.03;4381681;32;20485;-87
2023/03/17 09:09:02;;;;;;;8.60;2.28;;;;;;;11.72;59.85;100666.03;4381892;32;20094;-87
2023/03/17 09:11:28;;;;;;;7.37;2.37;;;;;;;11.66;59.84;100666.19;4394371;32;20098;-87
2023/03/17 09:13:54;;;;;;;5.90;2.65;;;;;;;11.71;59.84;100666.06;4381973;32;20128;-87
2023/03/17 09:16:20;;;;;;;5.95;2.55;;;;;;;11.85;59.86;100661.44;4394477;32;20106;-88
2023/03/17 09:18:46;;;;;;;12.23;3.30;;;;;;;11.97;59.86;100655.94;4408219;32;20108;-87
2023/03/17 09:21:12;;;;;;;7.32;2.72;;;;;;;11.98;59.86;100655.91;4370903;32;20141;-87
2023/03/17 09:23:37;;;;;;;7.53;3.10;;;;;;;11.96;59.86;100649.00;4396086;32;20411;-87
2023/03/17 09:26:03;;;;;;;4.80;2.05;;;;;;;12.05;59.87;100651.38;4396057;32;20129;-86
2023/03/17 09:28:28;;;;;;;6.22;1.95;;;;;;;12.03;59.86;100642.72;4396488;32;20106;-87
2023/03/17 09:31:01;;;;;;;3.50;1.80;;;;;;;12.04;59.87;100644.44;4383739;32;20082;-87
2023/03/17 09:33:26;;;;;;;3.90;1.85;;;;;;;11.88;59.85;100648.34;4383606;32;20102;-87
2023/03/17 09:35:53;;;;;;;6.97;2.37;;;;;;;12.11;59.87;100650.41;4396037;32;20149;-87
2023/03/17 09:38:18;;;;;;;8.05;2.60;;;;;;;12.31;59.89;100636.87;4383802;32;20164;-87
2023/03/17 09:40:55;;;;;;;7.60;2.53;;;;;;;12.31;59.89;100637.72;4383694;32;20117;-87
2023/03/17 09:43:43;;;;;;;6.32;2.83;;;;;;;12.26;59.87;100636.97;4396113;32;20132;-87
2023/03/17 09:46:50;;;;;;;6.70;1.90;;;;;;;12.50;59.90;100636.34;4397346;32;20102;-87
2023/03/17 09:49:19;;;;;;;5.32;2.20;;;;;;;12.54;59.89;100632.78;4397788;32;20090;-87
2023/03/17 09:51:45;;;;;;;3.30;1.87;;;;;;;12.64;59.89;100627.31;4384221;32;20473;-87
2023/03/17 09:54:11;;;;;;;6.55;2.85;;;;;;;12.54;59.89;100632.78;4383384;32;20140;-86
2023/03/17 09:56:38;;;;;;;6.22;1.75;;;;;;;12.64;59.89;100625.56;4395960;32;20110;-87
2023/03/17 09:59:06;;;;;;;7.10;2.03;;;;;;;12.59;59.90;100625.69;4383423;32;20094;-87
2023/03/17 10:01:31;;;;;;;6.75;2.33;;;;;;;12.83;59.91;100618.94;4383365;32;20145;-87
2023/03/17 10:03:57;;;;;;;9.93;3.60;;;;;;;13.05;59.92;100613.97;4383577;32;20483;-86
2023/03/17 10:06:29;;;;;;;4.22;2.40;;;;;;;13.11;59.92;100621.62;4383469;32;20097;-86
2023/03/17 10:08:59;;;;;;;7.32;3.58;;;;;;;13.16;59.92;100617.13;4395876;32;20105;-86
2023/03/17 10:11:40;;;;;;;7.95;3.15;;;;;;;12.87;59.90;100622.31;4396202;32;20482;-87
2023/03/17 10:14:13;;;;;;;8.02;3.22;;;;;;;13.16;59.92;100621.50;4383619;32;20140;-87
2023/03/17 10:16:43;;;;;;;4.87;1.67;;;;;;;12.87;59.92;100612.72;4395746;32;20102;-86
2023/03/17 10:19:18;;;;;;;5.18;2.55;;;;;;;12.98;59.92;100615.03;4396160;32;20090;-87
2023/03/17 10:21:48;;;;;;;11.93;2.50;;;;;;;13.03;59.92;100613.16;4409804;32;20086;-86
2023/03/17 10:24:13;;;;;;;9.57;2.10;;;;;;;13.14;59.93;100608.47;4383355;32;20165;-87
2023/03/17 10:26:44;;;;;;;4.30;1.90;;;;;;;13.26;59.94;100596.84;4382721;32;20142;-86
2023/03/17 10:29:20;;;;;;;6.25;2.20;;;;;;;13.28;59.93;100602.03;4383029;32;20078;-86
2023/03/17 10:31:46;;;;;;;5.20;1.67;;;;;;;12.94;59.91;100597.72;4396095;32;20108;-86
2023/03/17 10:34:24;;;;;;;8.43;2.90;;;;;;;13.26;59.94;100596.84;4395263;32;20093;-86
2023/03/17 10:36:53;;;;;;;5.65;2.72;;;;;;;13.02;59.91;100601.00;4383236;32;20466;-86
2023/03/17 10:39:20;;;;;;;4.50;2.05;;;;;;;12.90;59.91;100585.66;4383740;32;20509;-86
2023/03/17 10:42:07;;;;;;;5.68;2.45;;;;;;;12.75;59.91;100586.06;4382945;32;20423;-86
2023/03/17 10:44:39;;;;;;;6.55;2.53;;;;;;;12.86;59.91;100576.19;4384419;32;20179;-87
2023/03/17 10:47:07;;;;;;;8.75;2.50;;;;;;;13.14;59.93;100578.84;4383355;32;20144;-87
2023/03/17 10:49:36;;;;;;;6.87;2.40;;;;;;;13.41;59.95;100582.44;4396191;32;20116;-86
2023/03/17 10:52:06;;;;;;;5.87;2.60;;;;;;;13.43;59.95;100586.72;4370569;32;20106;-86
2023/03/17 10:54:33;;;;;;;;;;;;;;;13.58;59.96;100584.56;4396397;32;20098;-86
2023/03/17 10:57:00;;;;;;;6.78;2.40;;;;;;;13.75;59.96;100583.13;4383180;32;20012;-87
2023/03/17 10:59:30;;;;;;;5.30;2.30;;;;;;;13.49;59.95;100583.09;4395759;32;20169;-87
2023/03/17 11:01:59;;;;;;;9.05;2.65;;;;;;;13.82;59.96;100566.31;4396304;32;20148;-86
2023/03/17 11:04:38;;;;;;;6.75;2.37;;;;;;;14.14;59.98;100557.38;4395540;32;20136;-86
2023/03/17 11:07:37;;;;;;;7.15;4.20;;;;;;;14.23;59.98;100558.84;4383694;32;20119;-87
2023/03/17 11:10:05;;;;;;;8.20;3.90;;;;;;;14.27;59.99;100544.75;4370419;32;20120;-87
2023/03/17 11:12:37;;;;;;;6.72;2.20;;;;;;;14.39;60.00;100552.16;4395389;32;20169;-86
2023/03/17 11:15:08;;;;;;;5.65;2.87;;;;;;;14.57;60.01;100537.59;4383084;32;20105;-87
2023/03/17 11:17:38;;;;;;;5.60;2.67;;;;;;;14.66;60.01;100534.63;4383388;32;20113;-87
2023/03/17 11:20:04;;;;;;;6.05;2.28;;;;;;;14.76;60.02;100536.94;4395633;32;20091;-87
2023/03/17 11:22:39;;;;;;;8.38;2.95;;;;;;;14.83;60.02;100531.41;4409250;32;20094;-87
2023/03/17 11:25:18;;;;;;;5.28;2.78;;;;;;;14.70;60.01;100527.53;4382862;32;20126;-86